Arthur, ND

5:37 PM CDT on May 06, 2015 (GMT -0500)
Peterson Farms Seed | | Change Station
CLOSE
Current Station
Personal Weather Station
Location: Harwood, ND
Elevation: 896 ft
Nearby Weather Stations

Elev 896 ft 46.96 °N, 97.03 °W | Updated 14 seconds ago

Rain
Rain
64.8 °F
Feels Like 64.8 °F
N
17.0
Wind Variable Wind from ESE
Gusts 19.0 mph

Today
High -- | Low -- °F
--% Chance of Precip.
Yesterday
High -- | Low -- °F
Precip. -- in
6:05 AM 8:46 PM
Waning Gibbous, 92% visible
Pressure 29.74 in
Visibility 7.0 miles
Clouds Overcast 8000 ft
Dew Point 60 °F
Humidity 85%
Rainfall 0.23 in
Snow Depth Not available.
UV 1 out of 12
Pollen 5.20 out of 12
Air Quality Not available.
Flu Activity Regional
METAR KFAR 062153Z 11013KT 7SM -RA OVC080 19/16 A2974 RMK AO2 SLP069 P0000 T01890156

More Conditions Fewer Conditions

Pressure 29.74 in
Visibility 7.0 miles
Clouds Overcast 8000 ft
Dew Point 60 °F
Humidity 85%
Rainfall 0.23 in
Snow Depth Not available.
UV 1 out of 12
Pollen 5.20 out of 12
Air Quality Not available.
Flu Activity Regional
METAR KFAR 062153Z 11013KT 7SM -RA OVC080 19/16 A2974 RMK AO2 SLP069 P0000 T01890156

More Conditions Fewer Conditions

10-Day Weather Forecast

Almanac

Astronomy

May. 06, 2015 Rise Set
Actual Time
Civil Twilight
Nautical Twilight
Astronomical Twilight
Moon
Length of Visible Light
Length of Day
Tomorrow will be .
, % of the Moon is Illuminated

Today's Extremes

State Highs State Lows

Community

WunderPhotos

Upload Photos

1,819,031 photos uploaded!

WunderBlogs® & News

Nearby

Air Quality

  Air Quality AQ Index Pollutant
Not available.

Snow Depth

Station Depth Elevation

Earthquake Activity

City Distance Mag. Time & Date
Minimum magnitude displayed is 2.5.

Coastal Water Temperatures

Place Temperature

Stations

Nearby Weather Stations

Station Location Temp. Windchill Dew Point Humidity Wind Precip. Elev Updated Type